Time;durP1;ratioP1;P1;durP2;ratioP2;P2;SDS_P1;SDS_P2;PMS_P1;PMS_P2;Temp;Humidity;BMP_temperature;BMP_pressure;BME280_temperature;BME280_humidity;BME280_pressure;Samples;Min_cycle;Max_cycle;Signal;HPM_P1;HPM_P2
2021/03/13 00:00:39;;;;;;;4.50;1.60;;;9.60;99.90;;;;;;5095112;28;20020;-82
2021/03/13 00:03:05;;;;;;;5.00;1.80;;;9.50;99.90;;;;;;5095033;28;20046;-81
2021/03/13 00:05:35;;;;;;;2.85;1.70;;;9.50;99.90;;;;;;5095260;28;20020;-81
2021/03/13 00:08:02;;;;;;;6.15;1.80;;;9.60;99.90;;;;;;5094172;28;20024;-81
2021/03/13 00:10:27;;;;;;;2.58;1.40;;;9.40;99.90;;;;;;5092706;28;20020;-81
2021/03/13 00:12:54;;;;;;;4.53;1.73;;;9.40;99.90;;;;;;5092670;28;20047;-81
2021/03/13 00:15:22;;;;;;;4.20;1.63;;;9.60;99.90;;;;;;5092327;28;20036;-81
2021/03/13 00:17:50;;;;;;;4.50;2.10;;;9.40;99.90;;;;;;5093270;28;20024;-81
2021/03/13 00:20:19;;;;;;;4.22;1.63;;;9.20;99.90;;;;;;5093073;28;20020;-81
2021/03/13 00:22:45;;;;;;;3.88;1.60;;;9.10;99.90;;;;;;5093699;28;20044;-81
2021/03/13 00:25:12;;;;;;;2.97;1.90;;;9.00;99.90;;;;;;5094109;28;20028;-81
2021/03/13 00:27:47;;;;;;;5.60;1.90;;;9.10;99.90;;;;;;5094144;28;20110;-81
2021/03/13 00:30:18;;;;;;;2.60;1.60;;;9.00;99.90;;;;;;5094012;28;20115;-81
2021/03/13 00:32:49;;;;;;;4.18;1.67;;;9.10;99.90;;;;;;5093819;28;20472;-82
2021/03/13 00:35:16;;;;;;;3.10;1.60;;;9.10;99.90;;;;;;5087640;28;20074;-82
2021/03/13 00:37:42;;;;;;;3.83;1.65;;;9.00;99.90;;;;;;5085258;28;20027;-82
2021/03/13 00:40:11;;;;;;;3.20;1.85;;;8.80;99.90;;;;;;5094872;28;20032;-82
2021/03/13 00:42:38;;;;;;;5.20;2.55;;;8.80;99.90;;;;;;5093878;28;20476;-82
2021/03/13 00:45:04;;;;;;;4.78;2.42;;;9.00;99.90;;;;;;5094413;28;20150;-81
2021/03/13 00:47:30;;;;;;;4.93;2.63;;;8.60;99.90;;;;;;5093856;28;20057;-81
2021/03/13 00:49:55;;;;;;;5.18;2.55;;;9.00;99.90;;;;;;5093345;28;20106;-81
2021/03/13 00:52:21;;;;;;;6.40;2.60;;;8.60;99.90;;;;;;5092807;28;20027;-81
2021/03/13 00:54:47;;;;;;;3.38;2.03;;;8.40;99.90;;;;;;5093808;28;20028;-81
2021/03/13 00:57:12;;;;;;;5.85;2.20;;;8.40;99.90;;;;;;5073468;28;20016;-81
2021/03/13 00:59:38;;;;;;;7.03;2.67;;;8.40;99.90;;;;;;5093539;28;20032;-81
2021/03/13 01:02:03;;;;;;;3.45;2.10;;;8.40;99.90;;;;;;5093858;28;20024;-81
2021/03/13 01:04:29;;;;;;;8.93;2.83;;;8.40;99.90;;;;;;5093378;28;20047;-82
2021/03/13 01:06:55;;;;;;;6.10;2.20;;;8.40;99.90;;;;;;5092752;28;20016;-82
2021/03/13 01:09:20;;;;;;;6.00;2.03;;;8.40;99.90;;;;;;5093553;28;20077;-82
2021/03/13 01:11:46;;;;;;;4.10;2.13;;;8.40;99.90;;;;;;5093152;28;20028;-82
2021/03/13 01:14:12;;;;;;;3.88;1.90;;;8.40;99.90;;;;;;5093136;28;20395;-82
2021/03/13 01:16:37;;;;;;;6.78;2.28;;;8.40;99.90;;;;;;5093399;28;20552;-82
2021/03/13 01:19:03;;;;;;;5.00;2.17;;;8.80;99.90;;;;;;5093260;28;20054;-82
2021/03/13 01:21:29;;;;;;;5.57;2.40;;;8.20;99.90;;;;;;5093375;28;20461;-82
2021/03/13 01:23:54;;;;;;;5.25;2.28;;;8.10;99.90;;;;;;5093204;28;20514;-82
2021/03/13 01:26:20;;;;;;;4.05;2.30;;;7.90;99.90;;;;;;5092845;28;20093;-81
2021/03/13 01:28:46;;;;;;;5.43;2.40;;;7.80;99.90;;;;;;5092475;28;20059;-81
2021/03/13 01:31:12;;;;;;;4.60;2.20;;;7.80;99.90;;;;;;5092941;28;20027;-81
2021/03/13 01:33:38;;;;;;;5.82;2.20;;;7.70;99.90;;;;;;5074634;28;20502;-81
2021/03/13 01:36:05;;;;;;;3.47;2.00;;;7.80;99.90;;;;;;5093133;28;20048;-81
2021/03/13 01:38:31;;;;;;;4.15;2.00;;;7.80;99.90;;;;;;5092924;28;20028;-81
2021/03/13 01:40:57;;;;;;;4.40;2.20;;;8.00;99.90;;;;;;5092770;28;20020;-81
2021/03/13 01:43:22;;;;;;;6.85;3.30;;;8.30;99.90;;;;;;5092262;28;20027;-81
2021/03/13 01:45:48;;;;;;;5.35;3.15;;;7.80;99.90;;;;;;5092954;28;20388;-81
2021/03/13 01:48:14;;;;;;;6.38;3.10;;;7.50;99.90;;;;;;5092907;28;20486;-81
2021/03/13 01:50:40;;;;;;;6.68;3.05;;;7.90;99.90;;;;;;5092304;28;20035;-81
2021/03/13 01:53:05;;;;;;;8.10;3.22;;;7.40;99.90;;;;;;5092734;28;20476;-81
2021/03/13 01:55:31;;;;;;;4.53;2.40;;;7.70;99.90;;;;;;5092391;28;20027;-81
2021/03/13 01:57:57;;;;;;;5.80;2.25;;;7.20;99.90;;;;;;5092090;28;20468;-81
2021/03/13 02:00:24;;;;;;;6.05;3.08;;;7.20;99.90;;;;;;5091854;28;20488;-81
2021/03/13 02:02:50;;;;;;;5.57;2.60;;;7.30;99.90;;;;;;5092367;28;20036;-81
2021/03/13 02:05:26;;;;;;;7.35;3.33;;;7.20;99.90;;;;;;5092722;28;20551;-81
2021/03/13 02:08:13;;;;;;;5.15;3.30;;;7.20;99.90;;;;;;5074465;28;20093;-81
2021/03/13 02:10:53;;;;;;;8.27;3.70;;;7.20;99.90;;;;;;5092279;28;20030;-81
2021/03/13 02:13:25;;;;;;;7.63;3.20;;;7.40;99.90;;;;;;5091295;28;20532;-81
2021/03/13 02:16:15;;;;;;;5.65;3.20;;;7.00;99.90;;;;;;5092484;28;20387;-81
2021/03/13 02:19:02;;;;;;;7.72;3.90;;;7.10;99.90;;;;;;5092314;28;20142;-81
2021/03/13 02:21:47;;;;;;;7.13;3.50;;;7.10;99.90;;;;;;5074317;28;20387;-81
2021/03/13 02:24:26;;;;;;;6.25;3.28;;;7.50;99.90;;;;;;5072999;28;20081;-81
2021/03/13 02:27:20;;;;;;;7.53;3.88;;;6.90;99.90;;;;;;5090729;28;20483;-81
2021/03/13 02:29:52;;;;;;;6.47;3.40;;;6.80;99.90;;;;;;5090400;28;20035;-81
2021/03/13 02:32:23;;;;;;;6.60;3.35;;;7.20;99.90;;;;;;5089816;28;20058;-81
2021/03/13 02:35:00;;;;;;;5.88;3.35;;;6.80;99.90;;;;;;5090481;28;20032;-81
2021/03/13 02:37:28;;;;;;;4.55;3.25;;;6.70;99.90;;;;;;5090484;28;20468;-81
2021/03/13 02:39:56;;;;;;;5.15;3.13;;;6.70;99.90;;;;;;5090479;28;20026;-81
2021/03/13 02:42:23;;;;;;;5.43;2.90;;;6.80;99.90;;;;;;5091160;28;20069;-81
2021/03/13 02:44:50;;;;;;;6.82;3.00;;;6.80;99.90;;;;;;5092197;28;20032;-81
2021/03/13 02:47:17;;;;;;;6.35;3.00;;;7.30;99.90;;;;;;5092390;28;20042;-81
2021/03/13 02:49:45;;;;;;;4.40;2.67;;;7.20;99.90;;;;;;5092092;28;20354;-81
2021/03/13 02:52:12;;;;;;;4.10;2.25;;;7.20;99.90;;;;;;5092339;28;20365;-81
2021/03/13 02:54:43;;;;;;;5.72;2.50;;;7.00;99.90;;;;;;5091666;28;20024;-81
2021/03/13 02:57:13;;;;;;;3.67;2.33;;;6.90;99.90;;;;;;5092242;28;20020;-81
2021/03/13 02:59:40;;;;;;;7.68;2.70;;;7.10;99.90;;;;;;5092011;28;20404;-81
2021/03/13 03:02:07;;;;;;;5.03;2.40;;;6.90;99.90;;;;;;5092107;28;20020;-81
2021/03/13 03:04:36;;;;;;;4.80;2.30;;;6.90;99.90;;;;;;5091790;28;20411;-81
2021/03/13 03:07:03;;;;;;;5.78;2.47;;;7.30;99.90;;;;;;5092187;28;20399;-81
2021/03/13 03:09:29;;;;;;;4.93;2.35;;;6.90;99.90;;;;;;5091620;28;20107;-81
2021/03/13 03:11:56;;;;;;;3.58;1.90;;;6.90;99.90;;;;;;5091552;28;20412;-81
2021/03/13 03:14:22;;;;;;;3.70;2.20;;;7.10;99.90;;;;;;5084685;28;20017;-81
2021/03/13 03:16:54;;;;;;;3.65;1.77;;;6.80;99.90;;;;;;5075550;28;20534;-81
2021/03/13 03:19:21;;;;;;;4.40;1.95;;;6.80;99.90;;;;;;5075285;28;20473;-81
2021/03/13 03:21:47;;;;;;;3.55;1.50;;;7.30;99.90;;;;;;5075200;28;20083;-81
2021/03/13 03:24:13;;;;;;;4.88;1.67;;;6.80;99.90;;;;;;5075055;28;20028;-81
2021/03/13 03:26:39;;;;;;;4.65;1.58;;;6.80;99.90;;;;;;5075191;28;20024;-81
2021/03/13 03:29:08;;;;;;;4.97;1.70;;;7.00;99.90;;;;;;5075328;28;20028;-81
2021/03/13 03:31:34;;;;;;;3.78;1.60;;;7.40;99.90;;;;;;5075044;28;20078;-81
2021/03/13 03:33:59;;;;;;;3.45;1.63;;;7.20;99.90;;;;;;5075007;28;20104;-81
2021/03/13 03:36:25;;;;;;;3.88;1.80;;;7.20;99.90;;;;;;5075114;28;20472;-81
2021/03/13 03:38:54;;;;;;;5.20;1.60;;;6.90;99.90;;;;;;5074840;28;20073;-81
2021/03/13 03:41:20;;;;;;;4.30;1.50;;;6.80;99.90;;;;;;5076731;28;20388;-81
2021/03/13 03:43:53;;;;;;;4.32;1.73;;;7.30;99.90;;;;;;5094853;28;20024;-81
2021/03/13 03:46:19;;;;;;;4.90;1.80;;;7.00;99.90;;;;;;5095138;28;20032;-81
2021/03/13 03:48:46;;;;;;;4.03;1.63;;;7.20;99.90;;;;;;5095036;28;20045;-81
2021/03/13 03:51:15;;;;;;;3.97;1.60;;;6.70;99.90;;;;;;5094615;28;20039;-81
2021/03/13 03:53:43;;;;;;;4.07;1.75;;;6.70;99.90;;;;;;5094934;28;20487;-81
2021/03/13 03:56:10;;;;;;;5.72;1.88;;;6.70;99.90;;;;;;5094882;28;20170;-81
2021/03/13 03:58:45;;;;;;;3.13;1.50;;;6.80;99.90;;;;;;5094753;28;20050;-81
2021/03/13 04:01:12;;;;;;;3.92;1.48;;;6.80;99.90;;;;;;5094946;28;20027;-81
2021/03/13 04:03:43;;;;;;;5.18;1.55;;;6.90;99.90;;;;;;5094592;28;20048;-81
2021/03/13 04:06:11;;;;;;;2.28;1.30;;;7.10;99.90;;;;;;5094532;28;20024;-81
2021/03/13 04:08:38;;;;;;;3.35;1.50;;;7.50;99.90;;;;;;5094520;28;20024;-81
2021/03/13 04:11:04;;;;;;;6.70;1.58;;;7.00;99.90;;;;;;5094407;28;20073;-81
2021/03/13 04:13:30;;;;;;;5.60;1.73;;;7.00;99.90;;;;;;5094680;28;20034;-81
2021/03/13 04:15:56;;;;;;;3.90;1.80;;;7.20;99.90;;;;;;5094537;28;20039;-81
2021/03/13 04:18:22;;;;;;;3.00;1.50;;;6.70;99.90;;;;;;5094333;28;20024;-81
2021/03/13 04:20:51;;;;;;;3.75;1.73;;;6.80;99.90;;;;;;5094086;28;20106;-82
2021/03/13 04:23:21;;;;;;;5.72;1.65;;;6.70;99.90;;;;;;5094312;28;20047;-82
2021/03/13 04:25:50;;;;;;;3.72;2.03;;;6.90;99.90;;;;;;5092735;28;20495;-82
2021/03/13 04:28:15;;;;;;;6.75;2.22;;;6.30;99.90;;;;;;5094379;28;20020;-82
2021/03/13 04:30:41;;;;;;;3.33;1.70;;;6.20;99.90;;;;;;5094379;28;20032;-82
2021/03/13 04:33:07;;;;;;;3.15;1.45;;;6.40;99.90;;;;;;5093351;28;20487;-82
2021/03/13 04:35:33;;;;;;;5.03;1.60;;;6.50;99.90;;;;;;5073634;28;20024;-82
2021/03/13 04:38:01;;;;;;;2.42;1.40;;;7.10;99.90;;;;;;5073843;28;20039;-82
2021/03/13 04:40:27;;;;;;;4.22;1.35;;;7.00;99.90;;;;;;5077229;28;20012;-81
2021/03/13 04:42:52;;;;;;;2.13;1.15;;;6.80;99.90;;;;;;5093968;28;20126;-81
2021/03/13 04:45:19;;;;;;;4.30;1.30;;;6.80;99.90;;;;;;5094013;28;20088;-81
2021/03/13 04:47:47;;;;;;;4.15;1.38;;;7.00;99.90;;;;;;5094000;28;20066;-81
2021/03/13 04:50:15;;;;;;;4.13;1.42;;;6.90;99.90;;;;;;5093800;28;20480;-81
2021/03/13 04:52:41;;;;;;;3.25;1.50;;;6.80;99.90;;;;;;5093881;28;20061;-81
2021/03/13 04:55:08;;;;;;;4.25;1.50;;;7.20;99.90;;;;;;5090467;28;20024;-81
2021/03/13 04:57:34;;;;;;;3.30;1.52;;;6.40;99.90;;;;;;5073389;28;20020;-81
2021/03/13 04:59:59;;;;;;;4.20;1.88;;;6.40;99.90;;;;;;5073407;28;20016;-81
2021/03/13 05:02:25;;;;;;;5.13;1.55;;;6.90;99.90;;;;;;5073229;28;20024;-81
2021/03/13 05:04:50;;;;;;;4.95;1.48;;;6.40;99.90;;;;;;5073013;28;20028;-81
2021/03/13 05:07:16;;;;;;;4.25;1.90;;;6.60;99.90;;;;;;5073269;28;20035;-81
2021/03/13 05:09:42;;;;;;;3.55;1.38;;;6.50;99.90;;;;;;5074841;28;20025;-81
2021/03/13 05:12:08;;;;;;;3.35;1.52;;;6.00;99.90;;;;;;5092951;28;20024;-81
2021/03/13 05:14:34;;;;;;;4.10;1.98;;;6.00;99.90;;;;;;5093444;28;20017;-81
2021/03/13 05:17:01;;;;;;;4.63;1.48;;;6.10;99.90;;;;;;5075090;28;20066;-81
2021/03/13 05:19:27;;;;;;;3.72;1.50;;;6.40;99.90;;;;;;5093068;28;20031;-81
2021/03/13 05:21:54;;;;;;;4.90;2.00;;;6.30;99.90;;;;;;5093297;28;20024;-81
2021/03/13 05:24:20;;;;;;;4.53;1.38;;;6.50;99.90;;;;;;5093322;28;20491;-81
2021/03/13 05:26:45;;;;;;;3.90;1.60;;;6.20;99.90;;;;;;5092566;28;20024;-81
2021/03/13 05:29:11;;;;;;;3.78;1.83;;;6.10;99.90;;;;;;5093531;28;20034;-81
2021/03/13 05:31:37;;;;;;;5.30;1.90;;;6.70;99.90;;;;;;5084850;28;20400;-81
2021/03/13 05:34:03;;;;;;;2.42;1.60;;;6.10;99.90;;;;;;5073169;28;20032;-82
2021/03/13 05:36:28;;;;;;;2.50;1.60;;;6.00;99.90;;;;;;5089253;28;20097;-82
2021/03/13 05:38:54;;;;;;;2.92;1.25;;;6.30;99.90;;;;;;5093435;28;20035;-81
2021/03/13 05:41:20;;;;;;;3.88;1.73;;;6.60;99.90;;;;;;5092509;28;20028;-81
2021/03/13 05:43:46;;;;;;;4.60;1.90;;;6.60;99.90;;;;;;5093419;28;20032;-81
2021/03/13 05:46:12;;;;;;;4.10;1.67;;;6.70;99.90;;;;;;5093347;28;20048;-81
2021/03/13 05:48:43;;;;;;;3.45;1.52;;;6.40;99.90;;;;;;5092516;28;20534;-81
2021/03/13 05:51:12;;;;;;;3.35;1.80;;;6.40;99.90;;;;;;5093193;28;20051;-81
2021/03/13 05:53:40;;;;;;;3.65;1.35;;;6.30;99.90;;;;;;5093396;28;20058;-81
2021/03/13 05:56:10;;;;;;;4.82;1.70;;;6.40;99.90;;;;;;5092587;28;20012;-81
2021/03/13 05:58:38;;;;;;;4.18;1.42;;;6.40;99.90;;;;;;5093056;28;20577;-81
2021/03/13 06:01:08;;;;;;;5.72;1.65;;;6.30;99.90;;;;;;5093158;28;20024;-81
2021/03/13 06:03:34;;;;;;;3.50;1.92;;;6.60;99.90;;;;;;5092898;28;20484;-81
2021/03/13 06:06:01;;;;;;;4.53;1.80;;;6.70;99.90;;;;;;5093069;28;20422;-81
2021/03/13 06:08:27;;;;;;;5.68;1.60;;;6.30;99.90;;;;;;5093214;28;20065;-81
2021/03/13 06:10:55;;;;;;;4.18;1.55;;;6.30;99.90;;;;;;5074461;28;20429;-81
2021/03/13 06:13:21;;;;;;;4.50;1.60;;;6.60;99.90;;;;;;5088812;28;20047;-81
2021/03/13 06:15:48;;;;;;;4.10;1.70;;;6.40;99.90;;;;;;5072877;28;20024;-81
2021/03/13 06:18:13;;;;;;;4.47;1.90;;;6.40;99.90;;;;;;5083554;28;20550;-81
2021/03/13 06:20:39;;;;;;;4.95;1.70;;;6.40;99.90;;;;;;5089146;28;20087;-81
2021/03/13 06:23:08;;;;;;;3.75;1.77;;;6.60;99.90;;;;;;5072942;28;20028;-81
2021/03/13 06:25:35;;;;;;;3.20;1.40;;;6.90;99.90;;;;;;5063936;28;20016;-81
2021/03/13 06:28:00;;;;;;;5.15;1.58;;;6.70;99.90;;;;;;5092781;28;20498;-81
2021/03/13 06:30:33;;;;;;;4.25;1.58;;;6.70;99.90;;;;;;5092779;28;20103;-81
2021/03/13 06:32:58;;;;;;;4.55;1.48;;;6.80;99.90;;;;;;5092293;28;20158;-81
2021/03/13 06:35:29;;;;;;;2.60;1.20;;;7.40;99.90;;;;;;5093051;28;20516;-81
2021/03/13 06:37:57;;;;;;;5.20;1.52;;;7.00;99.90;;;;;;5092649;28;20460;-81
2021/03/13 06:40:34;;;;;;;3.45;1.30;;;7.00;99.90;;;;;;5089342;28;20023;-81
2021/03/13 06:43:02;;;;;;;3.60;1.60;;;7.10;99.90;;;;;;5092095;28;20029;-82
2021/03/13 06:45:28;;;;;;;3.08;1.58;;;7.10;99.90;;;;;;5077969;28;20099;-82
2021/03/13 06:47:55;;;;;;;4.50;1.60;;;7.60;99.90;;;;;;5091875;28;20023;-81
2021/03/13 06:50:26;;;;;;;5.22;1.77;;;7.50;99.90;;;;;;5088042;28;20044;-83
2021/03/13 06:53:10;;;;;;;3.78;1.52;;;7.40;99.90;;;;;;5088017;28;20031;-82
2021/03/13 06:55:36;;;;;;;5.07;1.60;;;7.60;99.90;;;;;;5094955;28;20028;-82
2021/03/13 06:58:09;;;;;;;5.10;1.40;;;7.50;99.90;;;;;;5094975;28;20169;-82
2021/03/13 07:00:37;;;;;;;4.13;1.63;;;7.50;99.90;;;;;;5095534;28;20027;-82
2021/03/13 07:03:11;;;;;;;2.00;1.35;;;7.60;99.90;;;;;;5087635;28;20128;-82
2021/03/13 07:05:39;;;;;;;3.20;1.20;;;7.80;99.90;;;;;;5075579;28;20029;-82
2021/03/13 07:08:30;;;;;;;4.03;1.10;;;8.00;99.90;;;;;;5057249;28;20028;-82
2021/03/13 07:11:02;;;;;;;4.18;0.90;;;8.20;99.90;;;;;;5095668;28;20112;-81
2021/03/13 07:13:35;;;;;;;3.67;1.00;;;8.40;99.90;;;;;;5095426;28;20024;-81
2021/03/13 07:16:26;;;;;;;3.75;0.98;;;8.50;99.90;;;;;;5094610;28;20024;-82
2021/03/13 07:18:54;;;;;;;2.17;0.98;;;8.60;99.90;;;;;;5094814;28;20111;-83
2021/03/13 07:21:20;;;;;;;2.45;1.00;;;8.90;99.90;;;;;;5095547;28;20012;-81
2021/03/13 07:23:54;;;;;;;2.95;1.10;;;8.80;99.90;;;;;;5095212;28;20035;-81
2021/03/13 07:26:24;;;;;;;4.35;0.85;;;8.90;99.90;;;;;;5095443;28;20020;-81
2021/03/13 07:28:52;;;;;;;2.10;1.10;;;9.40;99.90;;;;;;5078009;28;20036;-81
2021/03/13 07:31:19;;;;;;;3.25;1.00;;;9.10;99.90;;;;;;5079695;28;20031;-81
2021/03/13 07:33:47;;;;;;;2.90;1.15;;;9.20;99.90;;;;;;5077894;28;20424;-81
2021/03/13 07:36:17;;;;;;;1.90;0.90;;;9.30;99.90;;;;;;5093701;28;20099;-81
2021/03/13 07:38:44;;;;;;;1.27;0.90;;;9.40;99.90;;;;;;5080864;28;20029;-81
2021/03/13 07:41:14;;;;;;;3.80;1.10;;;9.40;99.90;;;;;;5087486;28;20016;-81
2021/03/13 07:43:42;;;;;;;3.42;0.90;;;9.50;99.90;;;;;;5082796;28;20494;-81
2021/03/13 07:46:08;;;;;;;2.75;1.20;;;9.60;99.90;;;;;;5091291;28;20042;-81
2021/03/13 07:48:36;;;;;;;3.28;0.93;;;9.70;99.90;;;;;;5093830;28;20197;-81
2021/03/13 07:51:03;;;;;;;2.53;1.10;;;9.80;99.90;;;;;;5085697;28;20044;-81
2021/03/13 07:53:33;;;;;;;2.47;1.30;;;9.70;99.90;;;;;;5085473;28;20028;-81
2021/03/13 07:55:59;;;;;;;1.80;0.90;;;9.80;99.90;;;;;;5090541;28;20454;-81
2021/03/13 07:58:25;;;;;;;4.03;0.98;;;10.00;99.90;;;;;;5084326;28;20460;-81
2021/03/13 08:00:51;;;;;;;2.22;1.00;;;9.90;99.90;;;;;;5079466;28;20087;-82
2021/03/13 08:03:49;;;;;;;1.92;1.00;;;9.90;99.90;;;;;;5080455;28;20044;-83
2021/03/13 08:06:16;;;;;;;1.95;1.20;;;10.00;99.90;;;;;;5093372;28;20085;-81
2021/03/13 08:08:43;;;;;;;3.22;1.45;;;10.10;99.90;;;;;;5094197;28;20055;-81
2021/03/13 08:11:10;;;;;;;3.60;1.15;;;10.10;99.90;;;;;;5075642;28;20023;-81
2021/03/13 08:13:36;;;;;;;5.45;1.60;;;10.10;99.90;;;;;;5091804;28;20027;-81
2021/03/13 08:16:10;;;;;;;2.58;1.15;;;10.10;99.90;;;;;;5093913;28;20016;-81
2021/03/13 08:18:48;;;;;;;1.70;0.80;;;10.30;99.90;;;;;;5093319;28;20031;-81
2021/03/13 08:21:20;;;;;;;3.45;0.90;;;10.40;99.90;;;;;;5094132;28;20052;-81
2021/03/13 08:23:53;;;;;;;2.22;1.10;;;10.40;99.90;;;;;;5094328;28;20491;-81
2021/03/13 08:26:43;;;;;;;1.88;0.98;;;10.60;99.90;;;;;;5094173;28;20110;-81
2021/03/13 08:29:10;;;;;;;1.98;0.70;;;10.60;99.90;;;;;;5075647;28;20393;-81
2021/03/13 08:31:37;;;;;;;1.67;0.70;;;10.80;99.90;;;;;;5094265;28;20055;-81
2021/03/13 08:34:06;;;;;;;2.22;1.05;;;10.70;99.90;;;;;;5093523;28;20035;-81
2021/03/13 08:36:33;;;;;;;3.67;1.10;;;10.80;99.90;;;;;;5093664;28;20032;-81
2021/03/13 08:39:11;;;;;;;3.55;0.85;;;11.00;99.90;;;;;;5093696;28;20031;-81
2021/03/13 08:41:45;;;;;;;2.47;0.90;;;11.20;99.90;;;;;;5093506;28;20028;-81
2021/03/13 08:44:13;;;;;;;2.88;1.33;;;11.30;99.90;;;;;;5093674;28;20027;-82
2021/03/13 08:46:49;;;;;;;1.50;1.10;;;11.40;99.90;;;;;;5093860;28;20549;-82
2021/03/13 08:49:21;;;;;;;2.50;0.75;;;11.40;99.90;;;;;;5093865;28;20567;-81
2021/03/13 08:51:47;;;;;;;1.60;1.00;;;11.50;99.90;;;;;;5093867;28;20073;-81
2021/03/13 08:54:12;;;;;;;3.65;0.85;;;11.80;99.90;;;;;;5093765;28;20028;-81
2021/03/13 08:56:38;;;;;;;2.03;0.93;;;12.00;99.90;;;;;;5093340;28;20028;-81
2021/03/13 08:59:20;;;;;;;1.90;0.60;;;12.90;99.90;;;;;;5092880;28;20038;-82
2021/03/13 09:02:07;;;;;;;1.70;0.80;;;16.40;99.90;;;;;;5093705;28;20445;-81
2021/03/13 09:04:35;;;;;;;1.13;0.60;;;18.30;99.90;;;;;;5076656;28;20047;-81
2021/03/13 09:07:03;;;;;;;1.27;0.70;;;19.80;99.90;;;;;;5093793;28;20016;-81
2021/03/13 09:09:30;;;;;;;0.98;0.70;;;19.50;99.90;;;;;;5075170;28;20495;-81
2021/03/13 09:12:07;;;;;;;1.10;0.68;;;20.80;99.90;;;;;;5092203;28;20103;-81
2021/03/13 09:14:34;;;;;;;1.38;0.90;;;21.30;99.90;;;;;;5092116;28;20027;-81
2021/03/13 09:17:27;;;;;;;1.63;0.60;;;20.80;99.90;;;;;;5093543;28;20059;-82
2021/03/13 09:19:53;;;;;;;3.38;0.80;;;20.30;99.90;;;;;;5089151;28;20042;-81
2021/03/13 09:22:26;;;;;;;1.80;0.70;;;19.90;99.90;;;;;;5093224;28;20499;-81
2021/03/13 09:24:55;;;;;;;0.93;0.60;;;17.80;99.90;;;;;;5092958;28;20063;-81
2021/03/13 09:27:29;;;;;;;1.60;0.80;;;17.60;99.90;;;;;;5092598;28;20024;-81
2021/03/13 09:29:56;;;;;;;1.77;0.73;;;18.10;99.90;;;;;;5093229;28;20016;-82
2021/03/13 09:32:25;;;;;;;1.23;0.60;;;18.80;99.90;;;;;;5093025;28;20024;-81
2021/03/13 09:34:53;;;;;;;3.15;1.02;;;18.10;99.90;;;;;;5092691;28;20024;-82
2021/03/13 09:37:21;;;;;;;2.08;1.00;;;19.20;99.90;;;;;;5093030;28;20024;-82
2021/03/13 09:39:53;;;;;;;3.70;1.08;;;19.10;99.90;;;;;;5092472;28;20016;-82
2021/03/13 09:42:20;;;;;;;2.42;0.90;;;19.70;99.90;;;;;;5092761;28;20462;-82
2021/03/13 09:44:54;;;;;;;2.13;0.70;;;20.40;99.90;;;;;;5092978;28;20020;-82
2021/03/13 09:47:25;;;;;;;1.25;0.70;;;17.50;99.90;;;;;;5093025;28;20157;-82
2021/03/13 09:49:56;;;;;;;1.15;0.68;;;18.40;99.90;;;;;;5092845;28;20023;-82
2021/03/13 09:52:32;;;;;;;1.27;0.80;;;17.40;99.90;;;;;;5092751;28;20024;-82
2021/03/13 09:55:07;;;;;;;2.42;0.80;;;19.70;99.90;;;;;;5092804;28;20020;-80
2021/03/13 09:57:35;;;;;;;2.53;0.77;;;19.70;99.90;;;;;;5091450;28;20024;-81
2021/03/13 10:00:06;;;;;;;1.75;0.85;;;21.30;99.90;;;;;;5092808;28;20047;-81
2021/03/13 10:02:32;;;;;;;0.63;0.50;;;18.60;99.90;;;;;;5092304;28;20071;-82
2021/03/13 10:04:58;;;;;;;2.45;0.90;;;17.80;99.90;;;;;;5092704;28;20102;-82
2021/03/13 10:07:24;;;;;;;1.88;0.70;;;19.60;99.90;;;;;;5092796;28;20028;-82
2021/03/13 10:10:00;;;;;;;1.08;0.65;;;19.00;99.90;;;;;;5092071;28;20032;-81
2021/03/13 10:12:35;;;;;;;2.63;0.90;;;19.00;99.90;;;;;;5092278;28;20552;-81
2021/03/13 10:15:11;;;;;;;2.08;0.70;;;17.50;99.90;;;;;;5092578;28;20017;-82
2021/03/13 10:18:02;;;;;;;1.02;0.60;;;17.50;99.90;;;;;;5092332;28;20039;-81
2021/03/13 10:20:36;;;;;;;1.55;0.80;;;17.20;99.90;;;;;;5092255;28;20418;-81
2021/03/13 10:23:08;;;;;;;1.50;0.65;;;16.70;99.90;;;;;;5074656;28;20110;-82
2021/03/13 10:25:35;;;;;;;0.60;0.40;;;18.10;99.90;;;;;;5096072;28;20104;-82
2021/03/13 10:28:04;;;;;;;1.42;0.70;;;16.30;99.90;;;;;;5076355;28;20016;-82
2021/03/13 10:30:29;;;;;;;2.92;0.70;;;15.60;99.90;;;;;;5076269;28;20032;-82
2021/03/13 10:32:55;;;;;;;1.63;1.00;;;14.90;99.90;;;;;;5076065;28;20062;-81
2021/03/13 10:35:30;;;;;;;1.42;0.80;;;14.40;99.90;;;;;;5076039;28;20037;-81
2021/03/13 10:37:58;;;;;;;3.40;0.70;;;13.90;99.90;;;;;;5077283;28;20052;-81
2021/03/13 10:40:39;;;;;;;0.70;0.60;;;13.80;99.90;;;;;;5096561;28;20020;-83
2021/03/13 10:43:22;;;;;;;1.33;0.70;;;14.10;99.90;;;;;;5096251;28;20016;-81
2021/03/13 10:45:57;;;;;;;2.90;1.10;;;14.70;99.90;;;;;;5096096;28;20024;-81
2021/03/13 10:48:35;;;;;;;5.13;1.95;;;15.30;99.90;;;;;;5078129;28;20465;-81
2021/03/13 10:51:02;;;;;;;1.00;0.60;;;15.40;99.90;;;;;;5094060;28;20024;-81
2021/03/13 10:53:30;;;;;;;1.98;0.52;;;15.00;99.90;;;;;;5095218;28;20025;-81
2021/03/13 10:56:16;;;;;;;4.20;1.00;;;15.20;99.90;;;;;;5095456;28;20052;-81
2021/03/13 10:58:46;;;;;;;2.35;1.00;;;16.10;99.90;;;;;;5084090;28;20055;-81
2021/03/13 11:01:12;;;;;;;2.00;0.55;;;17.30;99.90;;;;;;5075581;28;20021;-81
2021/03/13 11:03:40;;;;;;;1.38;0.90;;;17.60;99.90;;;;;;5075082;28;20481;-81
2021/03/13 11:06:06;;;;;;;1.38;0.80;;;17.90;99.90;;;;;;5075413;28;20400;-81
2021/03/13 11:08:32;;;;;;;3.78;1.00;;;18.40;99.90;;;;;;5093546;28;20020;-82
2021/03/13 11:10:58;;;;;;;1.83;0.90;;;17.70;99.90;;;;;;5087523;28;20028;-82
2021/03/13 11:13:24;;;;;;;1.98;0.70;;;17.50;99.90;;;;;;5077504;28;20031;-82
2021/03/13 11:15:50;;;;;;;2.92;0.82;;;18.20;99.90;;;;;;5095280;28;20020;-82
2021/03/13 11:18:16;;;;;;;0.88;0.80;;;17.90;99.90;;;;;;5095277;28;20020;-82
2021/03/13 11:20:43;;;;;;;1.80;0.80;;;19.70;99.90;;;;;;5078093;28;20107;-82
2021/03/13 11:23:09;;;;;;;1.65;0.68;;;20.10;99.90;;;;;;5075169;28;20021;-82
2021/03/13 11:25:35;;;;;;;1.23;0.88;;;19.90;99.90;;;;;;5075365;28;20028;-82
2021/03/13 11:28:01;;;;;;;2.83;0.80;;;18.60;99.90;;;;;;5075137;28;20033;-82
2021/03/13 11:30:27;;;;;;;1.60;1.17;;;17.80;99.90;;;;;;5075062;28;20067;-81
2021/03/13 11:32:53;;;;;;;2.30;1.27;;;16.80;99.90;;;;;;5075257;28;20468;-83
2021/03/13 11:35:19;;;;;;;3.70;0.90;;;16.10;99.90;;;;;;5075677;28;20044;-82
2021/03/13 11:37:48;;;;;;;2.17;1.00;;;16.10;99.90;;;;;;5092221;28;20024;-82
2021/03/13 11:40:17;;;;;;;1.75;0.77;;;16.90;99.90;;;;;;5080735;28;20028;-82
2021/03/13 11:42:42;;;;;;;2.15;0.55;;;16.90;99.90;;;;;;5095244;28;20016;-81
2021/03/13 11:45:10;;;;;;;1.70;0.70;;;16.20;99.90;;;;;;5093970;28;20495;-82
2021/03/13 11:47:36;;;;;;;1.05;0.70;;;16.40;99.90;;;;;;5092929;28;20544;-82
2021/03/13 11:50:05;;;;;;;1.33;0.77;;;16.80;99.90;;;;;;5074851;28;20052;-82
2021/03/13 11:52:31;;;;;;;1.70;0.70;;;16.40;99.90;;;;;;5094807;28;20009;-82
2021/03/13 11:54:57;;;;;;;2.30;0.80;;;16.60;99.90;;;;;;5093507;28;20391;-81
2021/03/13 11:57:22;;;;;;;1.48;0.73;;;16.50;99.90;;;;;;5095133;28;20055;-84
2021/03/13 11:59:48;;;;;;;3.05;0.70;;;17.60;99.90;;;;;;5094762;28;20024;-84
2021/03/13 12:02:16;;;;;;;1.88;0.85;;;17.90;99.90;;;;;;5094661;28;20459;-84
2021/03/13 12:04:44;;;;;;;1.20;0.63;;;20.00;99.90;;;;;;5094447;28;20491;-82
2021/03/13 12:07:10;;;;;;;0.60;0.60;;;20.60;99.90;;;;;;5094675;28;20044;-82
2021/03/13 12:09:36;;;;;;;0.73;0.60;;;19.70;99.90;;;;;;5094571;28;20499;-82
2021/03/13 12:12:05;;;;;;;1.35;0.88;;;18.80;99.90;;;;;;5094611;28;20074;-82
2021/03/13 12:14:31;;;;;;;2.88;1.30;;;18.80;99.90;;;;;;5094646;28;20479;-82
2021/03/13 12:16:57;;;;;;;1.50;0.70;;;18.30;99.90;;;;;;5094519;28;20020;-82
2021/03/13 12:19:22;;;;;;;1.58;0.73;;;16.80;99.90;;;;;;5093562;28;20032;-82
2021/03/13 12:21:50;;;;;;;3.03;0.90;;;15.90;99.90;;;;;;5094345;28;20055;-82
2021/03/13 12:24:16;;;;;;;1.33;0.90;;;15.50;99.90;;;;;;5094320;28;20050;-83
2021/03/13 12:26:42;;;;;;;1.77;0.80;;;15.20;99.90;;;;;;5094538;28;20407;-83
2021/03/13 12:29:07;;;;;;;2.17;0.77;;;15.10;99.90;;;;;;5094207;28;20028;-82
2021/03/13 12:31:33;;;;;;;1.27;0.80;;;15.50;99.90;;;;;;5094547;28;20039;-82
2021/03/13 12:33:58;;;;;;;3.22;0.80;;;15.30;99.90;;;;;;5093400;28;20028;-82
2021/03/13 12:36:24;;;;;;;1.83;1.15;;;15.00;99.90;;;;;;5093063;28;20592;-82
2021/03/13 12:38:50;;;;;;;2.45;1.10;;;15.00;99.90;;;;;;5094050;28;20024;-82
2021/03/13 12:41:16;;;;;;;3.90;0.90;;;15.50;99.90;;;;;;5094033;28;20048;-82
2021/03/13 12:43:42;;;;;;;2.35;1.23;;;15.50;99.90;;;;;;5093981;28;20025;-82
2021/03/13 12:46:14;;;;;;;2.25;1.08;;;15.60;99.90;;;;;;5093782;28;20096;-82
2021/03/13 12:48:40;;;;;;;2.00;0.90;;;16.30;99.90;;;;;;5093214;28;20027;-82
2021/03/13 12:51:05;;;;;;;1.00;0.90;;;17.70;99.90;;;;;;5093307;28;20024;-82
2021/03/13 12:53:31;;;;;;;2.67;1.00;;;17.80;99.90;;;;;;5093829;28;20032;-82
2021/03/13 12:55:56;;;;;;;2.15;1.27;;;18.10;99.90;;;;;;5093697;28;20030;-82
2021/03/13 12:58:22;;;;;;;1.42;1.15;;;18.60;99.90;;;;;;5093212;28;20482;-82
2021/03/13 13:00:48;;;;;;;1.80;0.85;;;17.90;99.90;;;;;;5093297;28;20020;-82